Positano — IJZJ — position and weather

sailwx.info

Track history (hours):
 
Tides and Currents Weather Stations Pressure Air Temp Water Temp Dewpoint Dewpoint Depression Visibility Wind Speed Wind Dir Waves Ship Positions

Positano

Last reported at 2018-May-02 12:31 UTC. Time now 2018-May-22 14:06 UTC.
Position N 40°34' E 014°12'.
Warning: this ship's position is 20 days out of date.

Length 12 m.

MMSI: 247208300.

Date/timePositionNaut miles runAvg speedWind from/ knotsBaromVisibWave heightAir tempDewpointWater temp
2018-May-02 12:31N 40°34' E 014°12'0 0.3
2018-May-02 12:30N 40°34' E 014°12'2 2.8
2018-May-02 11:54N 40°34' E 014°15'0 1.2
2018-May-02 11:30N 40°33' E 014°15'0 0.0
2018-May-02 10:54N 40°33' E 014°15'0 0.0
2018-May-02 10:03N 40°33' E 014°15'0 0.0
2018-May-02 09:50N 40°33' E 014°15'0 0.0
2018-May-02 08:50N 40°33' E 014°15'0 0.0
2018-May-02 07:16N 40°33' E 014°15'0 0.0
2018-May-02 06:58N 40°33' E 014°15'0 0.7
2018-May-02 06:21N 40°33' E 014°15'6 0.4
2018-May-01 16:26N 40°37' E 014°20'1 1.3
2018-May-01 16:00N 40°38' E 014°20'5 9.1
2018-May-01 15:30N 40°34' E 014°16'1 2.5
2018-May-01 15:00N 40°33' E 014°15'4 7.1
2018-May-01 14:30N 40°36' E 014°19'1 2.1
2018-May-01 13:53N 40°37' E 014°20'5 9.6
2018-May-01 13:24N 40°33' E 014°16'2 4.3
2018-May-01 13:00N 40°32' E 014°14'2 3.3
2018-May-01 12:30N 40°34' E 014°12'2 3.5
2018-May-01 11:57N 40°34' E 014°15'0 0.5
2018-May-01 11:29N 40°34' E 014°15'0 0.0
2018-May-01 10:56N 40°34' E 014°15'0 0.0
2018-May-01 10:30N 40°34' E 014°15'0 0.6
2018-May-01 09:43N 40°34' E 014°15'2 6.3
2018-May-01 09:28N 40°34' E 014°13'3 2.5
2018-May-01 08:24N 40°34' E 014°16'4 9.4
2018-May-01 08:00N 40°37' E 014°19'2 3.3
2018-May-01 07:31N 40°38' E 014°21'2 3.4
2018-May-01 07:00N 40°36' E 014°20'5 7.7
2018-May-01 06:23N 40°34' E 014°15'4 9.7
2018-May-01 06:00N 40°36' E 014°19'1 0.1
2018-Apr-30 17:01N 40°37' E 014°20'0 9.6
2018-Apr-30 17:00N 40°36' E 014°20'6 4.8
2018-Apr-30 15:41N 40°34' E 014°12'1 7.7
2018-Apr-30 15:30N 40°34' E 014°14'0 0.7
2018-Apr-30 14:58N 40°34' E 014°15'1 2.0
2018-Apr-30 14:30N 40°34' E 014°16'0 0.1
2018-Apr-30 10:19N 40°34' E 014°15'0 1.0
2018-Apr-30 09:55N 40°34' E 014°15'4 0.2
2018-Apr-29 16:51N 40°36' E 014°20'6 7.5
2018-Apr-29 16:07N 40°32' E 014°15'1 6.8
2018-Apr-29 15:59N 40°32' E 014°14'2 3.5
2018-Apr-29 15:30N 40°34' E 014°12'2 3.2
2018-Apr-29 14:58N 40°34' E 014°15'2 3.4
2018-Apr-29 14:28N 40°34' E 014°17'3 4.7
2018-Apr-29 13:47N 40°36' E 014°20'310.1
2018-Apr-29 13:30N 40°35' E 014°17'4 4.2
2018-Apr-29 12:32N 40°34' E 014°12'0 8.5
2018-Apr-29 12:30N 40°34' E 014°12'2 3.6
2018-Apr-29 12:00N 40°34' E 014°15'0 0.8
2018-Apr-29 11:30N 40°33' E 014°15'0 0.0
2018-Apr-29 11:00N 40°33' E 014°15'0 0.0
2018-Apr-29 10:30N 40°33' E 014°15'1 1.5
2018-Apr-29 09:55N 40°34' E 014°16'4 9.4
2018-Apr-29 09:30N 40°36' E 014°20'3 5.0
2018-Apr-29 09:00N 40°38' E 014°23'2 3.1
2018-Apr-29 08:30N 40°38' E 014°21'1 1.1
2018-Apr-29 07:15N 40°37' E 014°20'2 9.7
2018-Apr-29 07:00N 40°35' E 014°17'2 3.8
2018-Apr-29 06:30N 40°34' E 014°16'2 0.2
2018-Apr-28 15:33N 40°34' E 014°12'0 1.7
2018-Apr-28 15:30N 40°34' E 014°12'2 3.0
2018-Apr-28 14:55N 40°34' E 014°15'0 1.0
2018-Apr-28 14:30N 40°33' E 014°15'0 0.0
2018-Apr-28 14:00N 40°33' E 014°15'0 0.0
2018-Apr-28 13:30N 40°34' E 014°15'0 0.0
2018-Apr-28 12:58N 40°34' E 014°15'0 0.0
2018-Apr-28 12:30N 40°34' E 014°15'0 0.0
2018-Apr-28 12:00N 40°34' E 014°15'0 0.0
2018-Apr-28 11:30N 40°34' E 014°15'0 0.0
2018-Apr-28 10:58N 40°33' E 014°15'0 0.0
2018-Apr-28 10:29N 40°33' E 014°15'1 1.2
2018-Apr-28 09:53N 40°34' E 014°16'4 7.6
2018-Apr-28 09:19N 40°37' E 014°20'2 6.9
2018-Apr-28 09:00N 40°38' E 014°23'0 0.5
2018-Apr-28 08:30N 40°38' E 014°22'3 2.0
2018-Apr-28 07:03N 40°36' E 014°19'1 9.3
2018-Apr-28 06:57N 40°36' E 014°18'4 6.0
2018-Apr-28 06:22N 40°34' E 014°15'410.1
2018-Apr-28 06:00N 40°36' E 014°19'1 0.0
2018-Apr-26 16:48N 40°36' E 014°20'4 9.6
2018-Apr-26 16:23N 40°33' E 014°16'2 4.7
2018-Apr-26 16:00N 40°33' E 014°14'2 3.4
2018-Apr-26 15:30N 40°34' E 014°13'1 3.0
2018-Apr-26 15:00N 40°34' E 014°15'0 0.2
2018-Apr-26 14:30N 40°34' E 014°15'1 1.6
2018-Apr-26 13:52N 40°33' E 014°16'0 0.0
2018-Apr-26 13:29N 40°33' E 014°16'0 0.0
2018-Apr-26 13:00N 40°33' E 014°16'0 0.0
2018-Apr-26 12:30N 40°33' E 014°16'0 0.0
2018-Apr-26 12:00N 40°33' E 014°16'0 0.0
2018-Apr-26 11:30N 40°33' E 014°16'0 0.0
2018-Apr-26 11:00N 40°33' E 014°16'0 0.0
2018-Apr-26 10:29N 40°33' E 014°16'2 2.4
2018-Apr-26 09:49N 40°35' E 014°17'4 7.9
2018-Apr-26 09:22N 40°37' E 014°20'2 5.9
2018-Apr-26 09:00N 40°38' E 014°23'0 0.5
2018-Apr-26 08:30N 40°38' E 014°23'2 4.0
2018-Apr-26 08:00N 40°38' E 014°20'1 0.0
2018-Apr-25 09:16N 40°37' E 014°20'2 7.8
2018-Apr-25 09:00N 40°38' E 014°23'0 0.6
2018-Apr-25 08:30N 40°38' E 014°23'1 1.2
2018-Apr-25 08:00N 40°38' E 014°24'0 0.6
2018-Apr-25 07:30N 40°38' E 014°24'3 5.7
2018-Apr-25 06:59N 40°37' E 014°20'1 0.1
2018-Apr-24 16:50N 40°37' E 014°20'3 9.8
2018-Apr-24 16:30N 40°34' E 014°17'3 5.7
2018-Apr-24 16:00N 40°32' E 014°14'2 3.2
2018-Apr-24 15:30N 40°34' E 014°13'2 2.6
2018-Apr-24 14:45N 40°33' E 014°15'0 0.0
2018-Apr-24 14:29N 40°33' E 014°15'0 0.0
2018-Apr-24 13:59N 40°33' E 014°15'0 0.0
2018-Apr-24 13:27N 40°33' E 014°15'0 0.0
2018-Apr-24 12:55N 40°33' E 014°15'0 0.0
2018-Apr-24 12:29N 40°33' E 014°15'0 0.0
2018-Apr-24 12:00N 40°33' E 014°15'0 0.0
2018-Apr-24 11:30N 40°33' E 014°15'0 0.0
2018-Apr-24 11:00N 40°33' E 014°15'0 0.0
2018-Apr-24 10:29N 40°33' E 014°15'1 1.9
2018-Apr-24 09:57N 40°34' E 014°16'4 7.5
2018-Apr-24 09:23N 40°37' E 014°20'2 5.3
2018-Apr-24 09:00N 40°38' E 014°23'1 3.0
2018-Apr-24 08:30N 40°38' E 014°21'2 0.0
2018-Apr-22 14:17N 40°36' E 014°19'310.1
2018-Apr-22 14:00N 40°34' E 014°17'2 3.8
2018-Apr-22 13:22N 40°33' E 014°14'2 4.5
2018-Apr-22 12:54N 40°34' E 014°12'  
Track history (hours):
 
Tides and Currents Weather Stations Pressure Air Temp Water Temp Dewpoint Dewpoint Depression Visibility Wind Speed Wind Dir Waves Ship Positions

Positano

Last reported at 2018-May-02 12:31 UTC. Time now 2018-May-22 14:06 UTC.
Position N 40°34' E 014°12'.
Warning: this ship's position is 20 days out of date.

Length 12 m.

MMSI: 247208300.

Date/timePositionNaut miles runAvg speedWind from/ knotsBaromVisibWave heightAir tempDewpointWater temp
2018-May-02 12:31N 40°34' E 014°12'0 0.3
2018-May-02 12:30N 40°34' E 014°12'2 2.8
2018-May-02 11:54N 40°34' E 014°15'0 1.2
2018-May-02 11:30N 40°33' E 014°15'0 0.0
2018-May-02 10:54N 40°33' E 014°15'0 0.0
2018-May-02 10:03N 40°33' E 014°15'0 0.0
2018-May-02 09:50N 40°33' E 014°15'0 0.0
2018-May-02 08:50N 40°33' E 014°15'0 0.0
2018-May-02 07:16N 40°33' E 014°15'0 0.0
2018-May-02 06:58N 40°33' E 014°15'0 0.7
2018-May-02 06:21N 40°33' E 014°15'6 0.4
2018-May-01 16:26N 40°37' E 014°20'1 1.3
2018-May-01 16:00N 40°38' E 014°20'5 9.1
2018-May-01 15:30N 40°34' E 014°16'1 2.5
2018-May-01 15:00N 40°33' E 014°15'4 7.1
2018-May-01 14:30N 40°36' E 014°19'1 2.1
2018-May-01 13:53N 40°37' E 014°20'5 9.6
2018-May-01 13:24N 40°33' E 014°16'2 4.3
2018-May-01 13:00N 40°32' E 014°14'2 3.3
2018-May-01 12:30N 40°34' E 014°12'2 3.5
2018-May-01 11:57N 40°34' E 014°15'0 0.5
2018-May-01 11:29N 40°34' E 014°15'0 0.0
2018-May-01 10:56N 40°34' E 014°15'0 0.0
2018-May-01 10:30N 40°34' E 014°15'0 0.6
2018-May-01 09:43N 40°34' E 014°15'2 6.3
2018-May-01 09:28N 40°34' E 014°13'3 2.5
2018-May-01 08:24N 40°34' E 014°16'4 9.4
2018-May-01 08:00N 40°37' E 014°19'2 3.3
2018-May-01 07:31N 40°38' E 014°21'2 3.4
2018-May-01 07:00N 40°36' E 014°20'5 7.7
2018-May-01 06:23N 40°34' E 014°15'4 9.7
2018-May-01 06:00N 40°36' E 014°19'1 0.1
2018-Apr-30 17:01N 40°37' E 014°20'0 9.6
2018-Apr-30 17:00N 40°36' E 014°20'6 4.8
2018-Apr-30 15:41N 40°34' E 014°12'1 7.7
2018-Apr-30 15:30N 40°34' E 014°14'0 0.7
2018-Apr-30 14:58N 40°34' E 014°15'1 2.0
2018-Apr-30 14:30N 40°34' E 014°16'0 0.1
2018-Apr-30 10:19N 40°34' E 014°15'0 1.0
2018-Apr-30 09:55N 40°34' E 014°15'4 0.2
2018-Apr-29 16:51N 40°36' E 014°20'6 7.5
2018-Apr-29 16:07N 40°32' E 014°15'1 6.8
2018-Apr-29 15:59N 40°32' E 014°14'2 3.5
2018-Apr-29 15:30N 40°34' E 014°12'2 3.2
2018-Apr-29 14:58N 40°34' E 014°15'2 3.4
2018-Apr-29 14:28N 40°34' E 014°17'3 4.7
2018-Apr-29 13:47N 40°36' E 014°20'310.1
2018-Apr-29 13:30N 40°35' E 014°17'4 4.2
2018-Apr-29 12:32N 40°34' E 014°12'0 8.5
2018-Apr-29 12:30N 40°34' E 014°12'2 3.6
2018-Apr-29 12:00N 40°34' E 014°15'0 0.8
2018-Apr-29 11:30N 40°33' E 014°15'0 0.0
2018-Apr-29 11:00N 40°33' E 014°15'0 0.0
2018-Apr-29 10:30N 40°33' E 014°15'1 1.5
2018-Apr-29 09:55N 40°34' E 014°16'4 9.4
2018-Apr-29 09:30N 40°36' E 014°20'3 5.0
2018-Apr-29 09:00N 40°38' E 014°23'2 3.1
2018-Apr-29 08:30N 40°38' E 014°21'1 1.1
2018-Apr-29 07:15N 40°37' E 014°20'2 9.7
2018-Apr-29 07:00N 40°35' E 014°17'2 3.8
2018-Apr-29 06:30N 40°34' E 014°16'2 0.2
2018-Apr-28 15:33N 40°34' E 014°12'0 1.7
2018-Apr-28 15:30N 40°34' E 014°12'2 3.0
2018-Apr-28 14:55N 40°34' E 014°15'0 1.0
2018-Apr-28 14:30N 40°33' E 014°15'0 0.0
2018-Apr-28 14:00N 40°33' E 014°15'0 0.0
2018-Apr-28 13:30N 40°34' E 014°15'0 0.0
2018-Apr-28 12:58N 40°34' E 014°15'0 0.0
2018-Apr-28 12:30N 40°34' E 014°15'0 0.0
2018-Apr-28 12:00N 40°34' E 014°15'0 0.0
2018-Apr-28 11:30N 40°34' E 014°15'0 0.0
2018-Apr-28 10:58N 40°33' E 014°15'0 0.0
2018-Apr-28 10:29N 40°33' E 014°15'1 1.2
2018-Apr-28 09:53N 40°34' E 014°16'4 7.6
2018-Apr-28 09:19N 40°37' E 014°20'2 6.9
2018-Apr-28 09:00N 40°38' E 014°23'0 0.5
2018-Apr-28 08:30N 40°38' E 014°22'3 2.0
2018-Apr-28 07:03N 40°36' E 014°19'1 9.3
2018-Apr-28 06:57N 40°36' E 014°18'4 6.0
2018-Apr-28 06:22N 40°34' E 014°15'410.1
2018-Apr-28 06:00N 40°36' E 014°19'1 0.0
2018-Apr-26 16:48N 40°36' E 014°20'4 9.6
2018-Apr-26 16:23N 40°33' E 014°16'2 4.7
2018-Apr-26 16:00N 40°33' E 014°14'2 3.4
2018-Apr-26 15:30N 40°34' E 014°13'1 3.0
2018-Apr-26 15:00N 40°34' E 014°15'0 0.2
2018-Apr-26 14:30N 40°34' E 014°15'1 1.6
2018-Apr-26 13:52N 40°33' E 014°16'0 0.0
2018-Apr-26 13:29N 40°33' E 014°16'0 0.0
2018-Apr-26 13:00N 40°33' E 014°16'0 0.0
2018-Apr-26 12:30N 40°33' E 014°16'0 0.0
2018-Apr-26 12:00N 40°33' E 014°16'0 0.0
2018-Apr-26 11:30N 40°33' E 014°16'0 0.0
2018-Apr-26 11:00N 40°33' E 014°16'0 0.0
2018-Apr-26 10:29N 40°33' E 014°16'2 2.4
2018-Apr-26 09:49N 40°35' E 014°17'4 7.9
2018-Apr-26 09:22N 40°37' E 014°20'2 5.9
2018-Apr-26 09:00N 40°38' E 014°23'0 0.5
2018-Apr-26 08:30N 40°38' E 014°23'2 4.0
2018-Apr-26 08:00N 40°38' E 014°20'1 0.0
2018-Apr-25 09:16N 40°37' E 014°20'2 7.8
2018-Apr-25 09:00N 40°38' E 014°23'0 0.6
2018-Apr-25 08:30N 40°38' E 014°23'1 1.2
2018-Apr-25 08:00N 40°38' E 014°24'0 0.6
2018-Apr-25 07:30N 40°38' E 014°24'3 5.7
2018-Apr-25 06:59N 40°37' E 014°20'1 0.1
2018-Apr-24 16:50N 40°37' E 014°20'3 9.8
2018-Apr-24 16:30N 40°34' E 014°17'3 5.7
2018-Apr-24 16:00N 40°32' E 014°14'2 3.2
2018-Apr-24 15:30N 40°34' E 014°13'2 2.6
2018-Apr-24 14:45N 40°33' E 014°15'0 0.0
2018-Apr-24 14:29N 40°33' E 014°15'0 0.0
2018-Apr-24 13:59N 40°33' E 014°15'0 0.0
2018-Apr-24 13:27N 40°33' E 014°15'0 0.0
2018-Apr-24 12:55N 40°33' E 014°15'0 0.0
2018-Apr-24 12:29N 40°33' E 014°15'0 0.0
2018-Apr-24 12:00N 40°33' E 014°15'0 0.0
2018-Apr-24 11:30N 40°33' E 014°15'0 0.0
2018-Apr-24 11:00N 40°33' E 014°15'0 0.0
2018-Apr-24 10:29N 40°33' E 014°15'1 1.9
2018-Apr-24 09:57N 40°34' E 014°16'4 7.5
2018-Apr-24 09:23N 40°37' E 014°20'2 5.3
2018-Apr-24 09:00N 40°38' E 014°23'1 3.0
2018-Apr-24 08:30N 40°38' E 014°21'2 0.0
2018-Apr-22 14:17N 40°36' E 014°19'310.1
2018-Apr-22 14:00N 40°34' E 014°17'2 3.8
2018-Apr-22 13:22N 40°33' E 014°14'2 4.5
2018-Apr-22 12:54N 40°34' E 014°12'  

Dump ship's entire track history